Terminal Aerodrome Forecast
Issued by NWS Sioux Falls, SD

Home | Current Version | Previous Version | Graphics & Text | Print | Product List | Glossary Off
Versions: 1 2 3 4 5 6 7 8 9 10 11 12 13 14 15 16

000
FTUS43 KFSD 121700
TAFHON
TAF
KHON 121728Z 1218/1318 02009KT P6SM SCT035 BKN120
      TEMPO 1218/1221 -SHRA BKN035
     FM130000 VRB04KT P6SM SCT080
     FM130600 24006KT P6SM SCT120
     FM131000 36010KT P6SM SCT080 SCT200=

USA.gov is the U.S. government's official web portal to all federal, state and local government web resources and services.